createdAt,value
2022-12-14T00:02:04.025Z,-2.60
2022-12-14T00:04:35.148Z,-2.60
2022-12-14T00:07:04.369Z,-2.50
2022-12-14T00:09:32.282Z,-2.50
2022-12-14T00:12:01.908Z,-2.60
2022-12-14T00:14:29.825Z,-2.60
2022-12-14T00:16:57.790Z,-2.70
2022-12-14T00:19:25.741Z,-2.60
2022-12-14T00:21:55.951Z,-2.60
2022-12-14T00:24:25.545Z,-2.60
2022-12-14T00:26:53.462Z,-2.60
2022-12-14T00:29:24.298Z,-2.60
2022-12-14T00:31:52.334Z,-2.50
2022-12-14T00:34:20.278Z,-2.50
2022-12-14T00:36:48.234Z,-2.50
2022-12-14T00:39:16.270Z,-2.50
2022-12-14T00:41:45.702Z,-2.50
2022-12-14T00:44:13.725Z,-2.40
2022-12-14T00:46:41.664Z,-2.50
2022-12-14T00:49:09.954Z,-2.40
2022-12-14T00:51:37.907Z,-2.40
2022-12-14T00:54:06.047Z,-2.40
2022-12-14T00:56:34.376Z,-2.40
2022-12-14T00:59:03.816Z,-2.40
2022-12-14T01:01:34.913Z,-2.40
2022-12-14T01:04:17.007Z,-2.40
2022-12-14T01:06:46.037Z,-2.40
2022-12-14T01:09:14.558Z,-2.40
2022-12-14T01:11:43.861Z,-2.40
2022-12-14T01:14:14.517Z,-2.40
2022-12-14T01:16:42.710Z,-2.40
2022-12-14T01:19:12.179Z,-2.40
2022-12-14T01:21:45.454Z,-2.40
2022-12-14T01:24:13.614Z,-2.40
2022-12-14T01:26:41.638Z,-2.40
2022-12-14T01:29:09.632Z,-2.40
2022-12-14T01:31:39.651Z,-2.40
2022-12-14T01:34:08.228Z,-2.40
2022-12-14T01:36:37.465Z,-2.50
2022-12-14T01:39:10.784Z,-2.40
2022-12-14T01:41:40.541Z,-2.40
2022-12-14T01:44:41.871Z,-2.40
2022-12-14T01:47:19.217Z,-2.40
2022-12-14T01:49:53.069Z,-2.30
2022-12-14T01:52:26.570Z,-2.30
2022-12-14T01:54:59.207Z,-2.30
2022-12-14T01:57:30.498Z,-2.30
2022-12-14T02:00:06.621Z,-2.40
2022-12-14T02:02:37.412Z,-2.40
2022-12-14T02:05:09.024Z,-2.40
2022-12-14T02:07:40.373Z,-2.40
2022-12-14T02:10:09.489Z,-2.30
2022-12-14T02:12:41.364Z,-2.40
2022-12-14T02:15:09.879Z,-2.40
2022-12-14T02:17:39.741Z,-2.40
2022-12-14T02:20:08.716Z,-2.40
2022-12-14T02:23:20.073Z,-2.40
2022-12-14T02:26:09.097Z,-2.50
2022-12-14T02:29:06.314Z,-2.40
2022-12-14T02:31:43.176Z,-2.40
2022-12-14T02:34:20.449Z,-2.40
2022-12-14T02:36:57.948Z,-2.40
2022-12-14T02:39:34.397Z,-2.50
2022-12-14T02:42:11.102Z,-2.40
2022-12-14T02:44:50.965Z,-2.30
2022-12-14T02:47:26.789Z,-2.40
2022-12-14T02:50:05.205Z,-2.40
2022-12-14T02:52:41.825Z,-2.40
2022-12-14T02:55:16.411Z,-2.40
2022-12-14T02:57:52.535Z,-2.30
2022-12-14T03:00:22.336Z,-2.30
2022-12-14T03:02:52.822Z,-2.30
2022-12-14T03:05:24.188Z,-2.30
2022-12-14T03:07:56.147Z,-2.40
2022-12-14T03:10:32.260Z,-2.40
2022-12-14T03:13:07.941Z,-2.40
2022-12-14T03:15:41.119Z,-2.40
2022-12-14T03:18:10.439Z,-2.50
2022-12-14T03:20:40.991Z,-2.50
2022-12-14T03:23:12.577Z,-2.50
2022-12-14T03:25:45.919Z,-2.60
2022-12-14T03:28:21.758Z,-2.60
2022-12-14T03:31:00.402Z,-2.60
2022-12-14T03:33:31.388Z,-2.60
2022-12-14T03:36:04.746Z,-2.70
2022-12-14T03:38:36.976Z,-2.60
2022-12-14T03:41:15.988Z,-2.60
2022-12-14T03:43:55.152Z,-2.60
2022-12-14T03:46:33.608Z,-2.70
2022-12-14T03:49:12.997Z,-2.60
2022-12-14T03:51:52.791Z,-2.60
2022-12-14T03:54:29.667Z,-2.50
2022-12-14T03:57:04.557Z,-2.50
2022-12-14T03:59:39.270Z,-2.50
2022-12-14T04:02:12.853Z,-2.50
2022-12-14T04:04:45.695Z,-2.50
2022-12-14T04:07:23.849Z,-2.50
2022-12-14T04:09:55.477Z,-2.50
2022-12-14T04:12:51.606Z,-2.50
2022-12-14T04:15:40.645Z,-2.50
2022-12-14T04:18:32.098Z,-2.50
2022-12-14T04:21:05.764Z,-2.40
2022-12-14T04:23:58.054Z,-2.50
2022-12-14T04:26:31.602Z,-2.40
2022-12-14T04:29:22.082Z,-2.40
2022-12-14T04:31:56.089Z,-2.40
2022-12-14T04:34:30.054Z,-2.40
2022-12-14T04:37:02.163Z,-2.40
2022-12-14T04:39:37.248Z,-2.40
2022-12-14T04:42:09.177Z,-2.40
2022-12-14T04:44:38.554Z,-2.40
2022-12-14T04:47:10.702Z,-2.40
2022-12-14T04:49:50.117Z,-2.40
2022-12-14T04:52:23.039Z,-2.40
2022-12-14T04:54:55.020Z,-2.40
2022-12-14T04:57:30.527Z,-2.40
2022-12-14T04:59:59.848Z,-2.30
2022-12-14T05:02:38.157Z,-2.30
2022-12-14T05:05:12.853Z,-2.30
2022-12-14T05:07:51.564Z,-2.30
2022-12-14T05:10:24.438Z,-2.30
2022-12-14T05:12:58.838Z,-2.30
2022-12-14T05:15:31.787Z,-2.40
2022-12-14T05:18:04.330Z,-2.30
2022-12-14T05:20:34.009Z,-2.40
2022-12-14T05:23:02.042Z,-2.40
2022-12-14T05:25:29.995Z,-2.30
2022-12-14T05:27:57.918Z,-2.30
2022-12-14T05:30:25.952Z,-2.30
2022-12-14T05:32:54.532Z,-2.30
2022-12-14T05:35:24.347Z,-2.20
2022-12-14T05:37:54.085Z,-2.30
2022-12-14T05:40:21.941Z,-2.20
2022-12-14T05:42:55.235Z,-2.20
2022-12-14T05:45:25.496Z,-2.30
2022-12-14T05:47:53.414Z,-2.30
2022-12-14T05:50:21.259Z,-2.30
2022-12-14T05:52:51.842Z,-2.20
2022-12-14T05:55:21.247Z,-2.20
2022-12-14T05:57:49.123Z,-2.20
2022-12-14T06:00:17.669Z,-2.20
2022-12-14T06:02:45.830Z,-2.20
2022-12-14T06:05:13.796Z,-2.20
2022-12-14T06:07:41.679Z,-2.20
2022-12-14T06:10:10.234Z,-2.20
2022-12-14T06:12:43.581Z,-2.20
2022-12-14T06:15:12.051Z,-2.20
2022-12-14T06:17:43.970Z,-2.20
2022-12-14T06:20:12.574Z,-2.20
2022-12-14T06:22:47.224Z,-2.20
2022-12-14T06:25:15.827Z,-2.20
2022-12-14T06:27:45.177Z,-2.20
2022-12-14T06:30:14.192Z,-2.20
2022-12-14T06:32:42.926Z,-2.20
2022-12-14T06:35:11.246Z,-2.20
2022-12-14T06:37:39.191Z,-2.20
2022-12-14T06:40:08.349Z,-2.10
2022-12-14T06:42:36.421Z,-2.10
2022-12-14T06:45:06.495Z,-2.10
2022-12-14T06:47:34.590Z,-2.20
2022-12-14T06:50:02.548Z,-2.20
2022-12-14T06:52:30.476Z,-2.20
2022-12-14T06:54:58.434Z,-2.10
2022-12-14T06:57:27.149Z,-2.10
2022-12-14T06:59:55.097Z,-2.10
2022-12-14T07:02:24.613Z,-2.10
2022-12-14T07:04:52.689Z,-2.20
2022-12-14T07:07:23.387Z,-2.10
2022-12-14T07:09:51.502Z,-2.10
2022-12-14T07:12:19.483Z,-2.10
2022-12-14T07:14:47.436Z,-2.10
2022-12-14T07:17:15.387Z,-2.10
2022-12-14T07:19:46.281Z,-2.10
2022-12-14T07:22:17.328Z,-2.10
2022-12-14T07:24:46.986Z,-2.10
2022-12-14T07:27:14.895Z,-2.10
2022-12-14T07:29:44.997Z,-2.10
2022-12-14T07:32:13.176Z,-2.00
2022-12-14T07:34:41.603Z,-2.00
2022-12-14T07:37:11.079Z,-2.00
2022-12-14T07:39:43.994Z,-2.00
2022-12-14T07:42:12.937Z,-2.00
2022-12-14T07:44:40.874Z,-2.00
2022-12-14T07:47:12.476Z,-2.10
2022-12-14T07:49:43.038Z,-2.10
2022-12-14T07:52:12.326Z,-2.10
2022-12-14T07:54:40.223Z,-2.20
2022-12-14T07:57:08.186Z,-2.20
2022-12-14T07:59:36.238Z,-2.30
2022-12-14T08:02:04.549Z,-2.20
2022-12-14T08:04:35.588Z,-2.20
2022-12-14T08:07:03.527Z,-2.20
2022-12-14T08:09:32.992Z,-2.10
2022-12-14T08:12:00.988Z,-2.20
2022-12-14T08:14:37.720Z,-2.20
2022-12-14T08:17:05.734Z,-2.30
2022-12-14T08:19:36.416Z,-2.20
2022-12-14T08:22:04.369Z,-2.20
2022-12-14T08:24:36.108Z,-2.30
2022-12-14T08:27:04.084Z,-2.40
2022-12-14T08:29:32.026Z,-2.40
2022-12-14T08:32:00.138Z,-2.50
2022-12-14T08:34:28.058Z,-2.40
2022-12-14T08:36:56.288Z,-2.40
2022-12-14T08:39:24.436Z,-2.40
2022-12-14T08:41:53.824Z,-2.40
2022-12-14T08:44:21.715Z,-2.40
2022-12-14T08:46:49.944Z,-2.40
2022-12-14T08:49:18.295Z,-2.30
2022-12-14T08:51:46.382Z,-2.30
2022-12-14T08:54:14.488Z,-2.40
2022-12-14T08:56:42.917Z,-2.50
2022-12-14T08:59:24.698Z,-2.50
2022-12-14T09:02:00.362Z,-2.50
2022-12-14T09:04:28.747Z,-2.40
2022-12-14T09:06:57.152Z,-2.40
2022-12-14T09:09:26.303Z,-2.30
2022-12-14T09:11:54.353Z,-2.20
2022-12-14T09:14:23.750Z,-2.10
2022-12-14T09:16:51.795Z,-2.20
2022-12-14T09:19:19.944Z,-2.20
2022-12-14T09:21:47.905Z,-2.10
2022-12-14T09:24:15.950Z,-2.10
2022-12-14T09:26:43.863Z,-2.00
2022-12-14T09:29:16.487Z,-2.00
2022-12-14T09:31:45.900Z,-2.10
2022-12-14T09:34:13.895Z,-2.00
2022-12-14T09:36:42.146Z,-2.00
2022-12-14T09:39:14.559Z,-2.00
2022-12-14T09:41:56.355Z,-2.10
2022-12-14T09:44:40.018Z,-1.90
2022-12-14T09:47:15.870Z,-2.00
2022-12-14T09:49:48.398Z,-2.00
2022-12-14T09:52:20.017Z,-2.00
2022-12-14T09:54:49.663Z,-1.90
2022-12-14T09:57:26.854Z,-2.10
2022-12-14T09:59:55.490Z,-2.00
2022-12-14T10:02:35.376Z,-1.90
2022-12-14T10:05:45.655Z,-2.00
2022-12-14T10:08:22.270Z,-2.00
2022-12-14T10:10:59.064Z,-1.70
2022-12-14T10:13:37.836Z,-1.80
2022-12-14T10:16:20.176Z,-1.70
2022-12-14T10:19:19.673Z,-1.60
2022-12-14T10:21:50.814Z,-1.50
2022-12-14T10:24:22.385Z,-1.70
2022-12-14T10:26:53.573Z,-1.70
2022-12-14T10:29:30.474Z,-1.60
2022-12-14T10:32:08.286Z,-1.40
2022-12-14T10:34:42.229Z,-1.40
2022-12-14T10:37:22.573Z,-1.60
2022-12-14T10:39:59.641Z,-1.70
2022-12-14T10:42:35.460Z,-1.60
2022-12-14T10:48:24.694Z,-1.40
2022-12-14T10:51:01.445Z,-1.30
2022-12-14T10:53:40.829Z,-1.20
2022-12-14T10:56:15.425Z,-1.20
2022-12-14T10:58:43.567Z,-1.20
2022-12-14T11:01:15.607Z,-1.30
2022-12-14T11:03:45.857Z,-1.30
2022-12-14T11:06:20.160Z,-1.10
2022-12-14T11:08:49.853Z,-1.10
2022-12-14T11:11:19.968Z,-0.90
2022-12-14T11:13:53.539Z,-1.10
2022-12-14T11:16:36.645Z,-1.10
2022-12-14T11:19:14.632Z,-1.10
2022-12-14T11:21:44.581Z,-1.20
2022-12-14T11:24:23.317Z,-1.20
2022-12-14T11:26:54.413Z,-1.40
2022-12-14T11:29:28.916Z,-1.40
2022-12-14T11:31:57.393Z,-1.20
2022-12-14T11:34:32.502Z,-1.30
2022-12-14T11:37:15.942Z,-1.20
2022-12-14T11:39:49.780Z,-1.10
2022-12-14T11:42:31.697Z,-1.20
2022-12-14T11:45:30.536Z,-1.20
2022-12-14T11:48:23.374Z,-1.30
2022-12-14T11:50:52.915Z,-1.20
2022-12-14T11:53:23.782Z,-1.20
2022-12-14T11:55:56.845Z,-1.30
2022-12-14T11:58:29.133Z,-1.30
2022-12-14T12:01:00.531Z,-1.30
2022-12-14T12:03:33.050Z,-1.10
2022-12-14T12:06:06.682Z,-1.10
2022-12-14T12:08:39.574Z,-1.00
2022-12-14T12:11:17.240Z,-1.00
2022-12-14T12:13:48.012Z,-0.90
2022-12-14T12:16:19.801Z,-1.00
2022-12-14T12:18:50.936Z,-0.90
2022-12-14T12:21:22.287Z,-0.90
2022-12-14T12:23:57.794Z,-0.70
2022-12-14T12:26:29.956Z,-0.50
2022-12-14T12:29:03.556Z,-0.70
2022-12-14T12:31:39.236Z,-0.60
2022-12-14T12:34:16.055Z,-0.70
2022-12-14T12:37:17.048Z,-0.80
2022-12-14T12:39:38.028Z,-0.80
2022-12-14T12:42:15.611Z,-0.80
2022-12-14T12:44:51.485Z,-1.00
2022-12-14T12:47:30.213Z,-1.00
2022-12-14T12:50:06.397Z,-1.20
2022-12-14T12:52:51.991Z,-1.20
2022-12-14T12:55:24.712Z,-1.00
2022-12-14T12:57:56.370Z,-0.80
2022-12-14T13:00:27.193Z,-0.90
2022-12-14T13:03:00.139Z,-0.80
2022-12-14T13:05:48.416Z,-0.80
2022-12-14T13:08:24.514Z,-0.70
2022-12-14T13:11:24.691Z,-0.50
2022-12-14T13:13:48.238Z,-0.40
2022-12-14T13:16:26.609Z,-0.50
2022-12-14T13:19:25.530Z,-0.50
2022-12-14T13:21:54.576Z,-0.30
2022-12-14T13:24:24.673Z,-0.30
2022-12-14T13:27:17.899Z,-0.50
2022-12-14T13:30:01.251Z,-0.50
2022-12-14T13:32:47.032Z,-0.30
2022-12-14T13:35:38.996Z,-0.30
2022-12-14T13:38:33.546Z,-0.60
2022-12-14T13:41:26.510Z,-0.70
2022-12-14T13:44:33.533Z,-0.80
2022-12-14T13:47:07.098Z,-0.80
2022-12-14T13:49:37.692Z,-0.70
2022-12-14T13:52:06.462Z,-0.70
2022-12-14T13:54:37.429Z,-0.70
2022-12-14T13:57:09.683Z,-0.70
2022-12-14T13:59:43.372Z,-0.90
2022-12-14T14:02:39.869Z,-0.90
2022-12-14T14:05:46.889Z,-0.80
2022-12-14T14:08:39.216Z,-0.80
2022-12-14T14:11:55.202Z,-0.80
2022-12-14T14:14:44.256Z,-0.80
2022-12-14T14:17:25.568Z,-0.90
2022-12-14T14:19:56.057Z,-0.90
2022-12-14T14:22:27.289Z,-1.00
2022-12-14T14:25:00.948Z,-1.00
2022-12-14T14:27:35.176Z,-0.90
2022-12-14T14:30:24.074Z,-0.90
2022-12-14T14:32:54.181Z,-0.90
2022-12-14T14:35:26.404Z,-0.90
2022-12-14T14:37:59.609Z,-0.90
2022-12-14T14:40:58.327Z,-0.80
2022-12-14T14:43:26.369Z,-0.90
2022-12-14T14:45:59.467Z,-0.90
2022-12-14T14:48:34.370Z,-1.00
2022-12-14T14:51:06.665Z,-1.00
2022-12-14T14:53:36.777Z,-1.10
2022-12-14T14:56:14.181Z,-1.10
2022-12-14T14:58:43.552Z,-1.10
2022-12-14T15:01:25.188Z,-1.00
2022-12-14T15:04:01.993Z,-1.00
2022-12-14T15:06:33.212Z,-1.00
2022-12-14T15:09:06.465Z,-1.00
2022-12-14T15:11:43.992Z,-1.10
2022-12-14T15:14:33.053Z,-1.10
2022-12-14T15:17:13.363Z,-1.10
2022-12-14T15:19:48.356Z,-1.10
2022-12-14T15:22:19.757Z,-1.10
2022-12-14T15:24:49.903Z,-1.10
2022-12-14T15:27:25.123Z,-1.10
2022-12-14T15:29:54.074Z,-1.10
2022-12-14T15:32:26.722Z,-1.20
2022-12-14T15:34:59.250Z,-1.10
2022-12-14T15:37:31.005Z,-1.20
2022-12-14T15:40:05.541Z,-1.30
2022-12-14T15:42:34.021Z,-1.20
2022-12-14T15:45:10.732Z,-1.20
2022-12-14T15:47:41.764Z,-1.20
2022-12-14T15:50:18.953Z,-1.20
2022-12-14T15:52:47.987Z,-1.20
2022-12-14T15:55:27.077Z,-1.20
2022-12-14T15:57:55.436Z,-1.20
2022-12-14T16:00:23.842Z,-1.10
2022-12-14T16:02:53.912Z,-1.20
2022-12-14T16:05:23.600Z,-1.20
2022-12-14T16:07:56.300Z,-1.20
2022-12-14T16:10:28.308Z,-1.30
2022-12-14T16:13:01.939Z,-1.30
2022-12-14T16:15:31.188Z,-1.30
2022-12-14T16:18:03.427Z,-1.30
2022-12-14T16:20:33.170Z,-1.30
2022-12-14T16:23:06.432Z,-1.30
2022-12-14T16:25:36.893Z,-1.30
2022-12-14T16:28:22.993Z,-1.50
2022-12-14T16:30:57.169Z,-1.50
2022-12-14T16:33:27.184Z,-1.60
2022-12-14T16:36:07.803Z,-1.80
2022-12-14T16:38:42.257Z,-1.80
2022-12-14T16:41:10.893Z,-1.90
2022-12-14T16:43:40.786Z,-1.90
2022-12-14T16:46:19.289Z,-2.10
2022-12-14T16:49:20.927Z,-2.10
2022-12-14T16:52:07.245Z,-2.10
2022-12-14T16:54:39.119Z,-2.20
2022-12-14T16:57:13.195Z,-2.30
2022-12-14T16:59:44.011Z,-2.30
2022-12-14T17:02:29.732Z,-2.40
2022-12-14T17:05:00.955Z,-2.50
2022-12-14T17:07:31.162Z,-2.40
2022-12-14T17:09:59.355Z,-2.40
2022-12-14T17:12:28.135Z,-2.40
2022-12-14T17:14:56.226Z,-2.40
2022-12-14T17:17:32.842Z,-2.50
2022-12-14T17:20:05.011Z,-2.50
2022-12-14T17:22:37.197Z,-2.60
2022-12-14T17:25:05.615Z,-2.80
2022-12-14T17:27:33.651Z,-2.80
2022-12-14T17:30:01.689Z,-2.90
2022-12-14T17:32:31.513Z,-2.90
2022-12-14T17:35:01.185Z,-2.90
2022-12-14T17:37:35.701Z,-3.10
2022-12-14T17:40:05.678Z,-3.10
2022-12-14T17:42:33.694Z,-3.00
2022-12-14T17:45:01.926Z,-2.90
2022-12-14T17:47:30.010Z,-2.90
2022-12-14T17:49:57.967Z,-2.80
2022-12-14T17:52:31.779Z,-2.80
2022-12-14T17:55:00.146Z,-2.80
2022-12-14T17:57:28.457Z,-2.70
2022-12-14T18:00:10.396Z,-2.90
2022-12-14T18:02:39.865Z,-2.80
2022-12-14T18:05:13.198Z,-2.90
2022-12-14T18:07:42.703Z,-2.80
2022-12-14T18:10:14.120Z,-2.80
2022-12-14T18:12:42.683Z,-2.90
2022-12-14T18:15:18.122Z,-2.90
2022-12-14T18:17:46.157Z,-2.90
2022-12-14T18:20:17.637Z,-2.80
2022-12-14T18:22:50.974Z,-2.70
2022-12-14T18:25:27.903Z,-2.60
2022-12-14T18:27:56.166Z,-2.60
2022-12-14T18:30:24.860Z,-2.70
2022-12-14T18:32:53.093Z,-2.70
2022-12-14T18:35:23.575Z,-2.70
2022-12-14T18:37:53.390Z,-2.60
2022-12-14T18:40:24.532Z,-2.60
2022-12-14T18:42:53.584Z,-2.50
2022-12-14T18:45:32.564Z,-2.70
2022-12-14T18:48:01.448Z,-2.80
2022-12-14T18:50:31.619Z,-2.80
2022-12-14T18:53:01.136Z,-2.80
2022-12-14T18:55:31.873Z,-2.80
2022-12-14T18:58:01.923Z,-3.00
2022-12-14T19:00:39.482Z,-3.10
2022-12-14T19:03:07.572Z,-3.10
2022-12-14T19:05:35.664Z,-3.20
2022-12-14T19:08:05.211Z,-3.30
2022-12-14T19:10:34.415Z,-3.40
2022-12-14T19:13:02.480Z,-3.50
2022-12-14T19:15:32.265Z,-3.60
2022-12-14T19:18:02.274Z,-3.50
2022-12-14T19:20:30.549Z,-3.50
2022-12-14T19:22:58.751Z,-3.70
2022-12-14T19:25:28.124Z,-3.80
2022-12-14T19:28:31.015Z,-3.80
2022-12-14T19:30:45.321Z,-3.90
2022-12-14T19:33:13.606Z,-3.80
2022-12-14T19:35:43.292Z,-3.70
2022-12-14T19:38:14.820Z,-3.70
2022-12-14T19:40:46.160Z,-3.70
2022-12-14T19:43:14.585Z,-3.70
2022-12-14T19:45:42.551Z,-3.80
2022-12-14T19:48:13.363Z,-3.80
2022-12-14T19:50:41.759Z,-3.80
2022-12-14T19:53:09.999Z,-3.90
2022-12-14T19:55:38.056Z,-4.10
2022-12-14T19:58:08.069Z,-4.20
2022-12-14T20:00:36.042Z,-4.10
2022-12-14T20:03:04.519Z,-4.10
2022-12-14T20:05:32.620Z,-4.20
2022-12-14T20:08:00.644Z,-4.10
2022-12-14T20:10:31.995Z,-4.10
2022-12-14T20:13:00.082Z,-4.10
2022-12-14T20:15:29.372Z,-4.20
2022-12-14T20:17:59.325Z,-4.10
2022-12-14T20:20:29.301Z,-4.20
2022-12-14T20:22:57.342Z,-4.20
2022-12-14T20:25:25.468Z,-4.10
2022-12-14T20:27:55.631Z,-4.30
2022-12-14T20:30:23.551Z,-4.40
2022-12-14T20:32:52.820Z,-4.50
2022-12-14T20:35:20.816Z,-4.50
2022-12-14T20:37:49.069Z,-4.70
2022-12-14T20:40:17.234Z,-4.70
2022-12-14T20:42:45.151Z,-4.80
2022-12-14T20:45:13.219Z,-4.80
2022-12-14T20:47:41.210Z,-4.90
2022-12-14T20:50:10.614Z,-4.90
2022-12-14T20:52:38.571Z,-5.00
2022-12-14T20:55:07.226Z,-4.90
2022-12-14T20:57:35.210Z,-4.90
2022-12-14T21:00:04.924Z,-4.90
2022-12-14T21:02:33.210Z,-4.90
2022-12-14T21:05:03.701Z,-4.90
2022-12-14T21:07:34.147Z,-4.90
2022-12-14T21:10:02.431Z,-4.90
2022-12-14T21:12:30.647Z,-5.00
2022-12-14T21:14:59.457Z,-5.00
2022-12-14T21:17:29.072Z,-4.90
2022-12-14T21:19:57.743Z,-4.90
2022-12-14T21:22:30.214Z,-4.90
2022-12-14T21:25:04.883Z,-4.80
2022-12-14T21:27:35.780Z,-4.80
2022-12-14T21:30:03.839Z,-4.80
2022-12-14T21:32:32.228Z,-4.80
2022-12-14T21:35:07.998Z,-4.60
2022-12-14T21:37:38.242Z,-4.50
2022-12-14T21:40:30.424Z,-4.60
2022-12-14T21:42:57.898Z,-4.60
2022-12-14T21:45:28.331Z,-4.60
2022-12-14T21:47:59.520Z,-4.70
2022-12-14T21:50:27.486Z,-4.70
2022-12-14T21:52:55.425Z,-4.90
2022-12-14T21:55:24.857Z,-4.90
2022-12-14T21:58:10.066Z,-4.60
2022-12-14T22:00:40.548Z,-4.40
2022-12-14T22:03:08.676Z,-4.50
2022-12-14T22:05:40.722Z,-4.50
2022-12-14T22:08:08.635Z,-4.60
2022-12-14T22:10:37.916Z,-4.40
2022-12-14T22:13:06.042Z,-4.30
2022-12-14T22:15:34.164Z,-4.30
2022-12-14T22:18:05.204Z,-4.10
2022-12-14T22:20:33.292Z,-4.10
2022-12-14T22:23:01.181Z,-4.20
2022-12-14T22:25:36.565Z,-4.20
2022-12-14T22:28:15.830Z,-4.20
2022-12-14T22:30:43.801Z,-4.10
2022-12-14T22:33:11.635Z,-4.00
2022-12-14T22:35:39.963Z,-3.90
2022-12-14T22:38:08.097Z,-4.00
2022-12-14T22:40:43.864Z,-4.10
2022-12-14T22:43:20.722Z,-4.20
2022-12-14T22:45:52.336Z,-4.00
2022-12-14T22:48:23.743Z,-3.90
2022-12-14T22:50:58.596Z,-3.80
2022-12-14T22:53:30.100Z,-3.70
2022-12-14T22:56:07.825Z,-3.80
2022-12-14T22:58:49.523Z,-3.90
2022-12-14T23:01:24.216Z,-4.00
2022-12-14T23:03:53.688Z,-4.00
2022-12-14T23:06:21.905Z,-4.00
2022-12-14T23:09:08.246Z,-3.80
2022-12-14T23:11:53.762Z,-3.70
2022-12-14T23:14:40.785Z,-3.70
2022-12-14T23:17:26.195Z,-3.90
2022-12-14T23:20:11.907Z,-3.80
2022-12-14T23:22:57.344Z,-3.80
2022-12-14T23:25:42.690Z,-3.80
2022-12-14T23:28:28.187Z,-3.90
2022-12-14T23:31:17.656Z,-3.80
2022-12-14T23:34:02.883Z,-3.90
2022-12-14T23:36:48.553Z,-3.80
2022-12-14T23:39:37.434Z,-3.90
2022-12-14T23:42:23.532Z,-3.90
2022-12-14T23:45:09.198Z,-3.90
2022-12-14T23:47:56.169Z,-3.80
2022-12-14T23:50:41.666Z,-3.70
2022-12-14T23:53:28.049Z,-3.70
2022-12-14T23:56:13.873Z,-3.70
2022-12-14T23:59:00.679Z,-3.70
